createdAt,value
2023-04-28T00:02:14.471Z,97539.19
2023-04-28T00:12:16.498Z,97529.69
2023-04-28T00:22:18.988Z,97533.44
2023-04-28T00:32:21.607Z,97538.53
2023-04-28T00:42:24.259Z,97535.00
2023-04-28T00:52:26.717Z,97533.06
2023-04-28T01:02:30.439Z,97554.16
2023-04-28T01:12:32.763Z,97548.41
2023-04-28T01:22:34.796Z,97533.78
2023-04-28T01:32:36.946Z,97502.91
2023-04-28T01:42:39.132Z,97519.16
2023-04-28T01:52:41.156Z,97522.19
2023-04-28T02:02:43.447Z,97520.28
2023-04-28T02:12:45.787Z,97539.25
2023-04-28T02:22:47.923Z,97521.09
2023-04-28T02:32:50.378Z,97509.44
2023-04-28T02:42:52.836Z,97492.69
2023-04-28T02:52:55.037Z,97509.22
2023-04-28T03:02:57.343Z,97516.00
2023-04-28T03:12:59.864Z,97501.91
2023-04-28T03:23:02.893Z,97507.09
2023-04-28T03:33:05.782Z,97517.69
2023-04-28T03:43:08.097Z,97531.50
2023-04-28T03:53:10.177Z,97542.06
2023-04-28T04:03:12.521Z,97565.09
2023-04-28T04:13:14.956Z,97557.56
2023-04-28T04:23:17.290Z,97576.78
2023-04-28T04:33:19.338Z,97580.06
2023-04-28T04:43:21.727Z,97562.19
2023-04-28T04:53:24.223Z,97568.69
2023-04-28T05:03:26.932Z,97573.03
2023-04-28T05:13:29.209Z,97556.75
2023-04-28T05:23:31.328Z,97566.22
2023-04-28T05:33:33.643Z,97560.25
2023-04-28T05:43:36.393Z,97577.81
2023-04-28T05:53:38.762Z,97584.78
2023-04-28T06:03:43.955Z,97569.78
2023-04-28T06:13:46.297Z,97565.91
2023-04-28T06:23:48.550Z,97567.22
2023-04-28T06:33:50.655Z,97578.28
2023-04-28T06:43:52.959Z,97581.00
2023-04-28T06:53:55.384Z,97590.91
2023-04-28T07:03:57.904Z,97590.81
2023-04-28T07:14:00.158Z,97614.28
2023-04-28T07:24:02.376Z,97610.34
2023-04-28T07:34:04.698Z,97609.50
2023-04-28T07:44:09.667Z,97620.63
2023-04-28T07:54:12.313Z,97613.38
2023-04-28T08:04:15.177Z,97608.84
2023-04-28T08:14:18.215Z,97618.44
2023-04-28T08:24:20.817Z,97621.81
2023-04-28T08:34:23.154Z,97628.31
2023-04-28T08:44:25.575Z,97625.75
2023-04-28T08:54:31.268Z,97635.53
2023-04-28T09:04:33.928Z,97642.31
2023-04-28T09:14:37.685Z,97653.53
2023-04-28T09:24:41.035Z,97656.13
2023-04-28T09:34:45.972Z,97666.69
2023-04-28T09:44:54.212Z,97667.66
2023-04-28T09:54:57.365Z,97673.94
2023-04-28T10:05:00.067Z,97681.19
2023-04-28T10:15:03.377Z,97671.88
2023-04-28T10:25:14.909Z,97670.19
2023-04-28T10:35:23.956Z,97665.34
2023-04-28T10:45:44.669Z,97658.44
2023-04-28T10:56:06.886Z,97670.50
2023-04-28T11:06:32.574Z,97658.69
2023-04-28T11:16:35.707Z,97669.59
2023-04-28T11:26:39.374Z,97658.81
2023-04-28T11:36:42.364Z,97660.00
2023-04-28T11:46:46.576Z,97650.00
2023-04-28T11:56:48.901Z,97642.72
2023-04-28T12:06:59.223Z,97627.38
2023-04-28T12:17:02.465Z,97620.28
2023-04-28T12:27:17.571Z,97620.75
2023-04-28T12:37:20.090Z,97613.00
2023-04-28T12:47:23.156Z,97609.09
2023-04-28T12:57:26.716Z,97591.31
2023-04-28T13:07:30.609Z,97585.03
2023-04-28T13:17:34.312Z,97577.94
2023-04-28T13:27:37.765Z,97564.03
2023-04-28T13:37:46.012Z,97553.47
2023-04-28T13:47:49.094Z,97554.87
2023-04-28T13:57:52.680Z,97538.03
2023-04-28T14:07:55.410Z,97519.06
2023-04-28T14:17:57.833Z,97511.84
2023-04-28T14:28:00.383Z,97505.50
2023-04-28T14:38:03.656Z,97495.19
2023-04-28T14:48:08.066Z,97472.91
2023-04-28T14:58:10.560Z,97469.66
2023-04-28T15:08:12.850Z,97460.56
2023-04-28T15:18:15.176Z,97427.59
2023-04-28T15:28:17.695Z,97427.88
2023-04-28T15:38:19.979Z,97432.94
2023-04-28T15:48:23.571Z,97503.66
2023-04-28T15:58:26.264Z,97500.06
2023-04-28T16:08:29.707Z,97495.03
2023-04-28T16:18:32.096Z,97529.66
2023-04-28T16:28:35.165Z,97483.31
2023-04-28T16:38:37.660Z,97522.47
2023-04-28T16:48:39.908Z,97511.63
2023-04-28T16:58:42.504Z,97493.78
2023-04-28T17:08:45.065Z,97500.37
2023-04-28T17:18:47.290Z,97509.69
2023-04-28T17:28:49.998Z,97520.41
2023-04-28T17:38:52.828Z,97487.22
2023-04-28T17:48:55.158Z,97504.00
2023-04-28T17:58:57.504Z,97490.44
2023-04-28T18:08:59.962Z,97508.09
2023-04-28T18:19:02.397Z,97511.75
2023-04-28T18:29:04.969Z,97491.03
2023-04-28T18:39:08.890Z,97505.03
2023-04-28T18:49:11.629Z,97499.84
2023-04-28T18:59:14.500Z,97517.78
2023-04-28T19:09:17.567Z,97500.06
2023-04-28T19:19:20.076Z,97506.69
2023-04-28T19:29:22.213Z,97516.44
2023-04-28T19:39:25.583Z,97513.19
2023-04-28T19:49:28.886Z,97521.94
2023-04-28T19:59:31.245Z,97541.38
2023-04-28T20:09:35.223Z,97542.09
2023-04-28T20:19:37.947Z,97534.94
2023-04-28T20:29:40.310Z,97542.91
2023-04-28T20:39:42.571Z,97552.97
2023-04-28T20:49:45.069Z,97550.06
2023-04-28T20:59:47.570Z,97554.56
2023-04-28T21:09:50.061Z,97542.88
2023-04-28T21:19:54.325Z,97549.41
2023-04-28T21:29:56.630Z,97548.91
2023-04-28T21:39:59.336Z,97549.09
2023-04-28T21:50:01.838Z,97537.25
2023-04-28T22:00:06.853Z,97545.06
2023-04-28T22:10:09.908Z,97528.09
2023-04-28T22:20:12.404Z,97536.06
2023-04-28T22:30:15.045Z,97531.72
2023-04-28T22:40:17.260Z,97534.72
2023-04-28T22:50:19.573Z,97554.31
2023-04-28T23:00:21.809Z,97563.59
2023-04-28T23:10:24.024Z,97568.78
2023-04-28T23:20:26.159Z,97559.31
2023-04-28T23:30:28.330Z,97565.62
2023-04-28T23:40:30.503Z,97575.47
2023-04-28T23:50:32.725Z,97580.97
